Time;durP1;ratioP1;P1;durP2;ratioP2;P2;SDS_P1;SDS_P2;PMS_P1;PMS_P2;Temp;Humidity;BMP_temperature;BMP_pressure;BME280_temperature;BME280_humidity;BME280_pressure;Samples;Min_cycle;Max_cycle;Signal;HPM_P1;HPM_P2
2023/02/18 00:01:40;;;;;;;3.67;2.20;;;;;;;-145.69;100.00;52432.50;5134343;27;20197;-83
2023/02/18 00:04:06;;;;;;;2.97;2.00;;;;;;;-145.69;100.00;52386.97;5133260;27;20549;-85
2023/02/18 00:06:35;;;;;;;2.60;1.60;;;;;;;-145.69;100.00;52373.09;5134361;27;20197;-82
2023/02/18 00:09:03;;;;;;;2.83;2.33;;;;;;;-145.69;100.00;52396.84;5134248;27;20201;-84
2023/02/18 00:11:32;;;;;;;3.20;1.90;;;;;;;-145.69;100.00;52383.00;5133976;27;20722;-83
2023/02/18 00:14:00;;;;;;;2.43;1.57;;;;;;;-145.69;100.00;52404.78;5134129;27;20291;-82
2023/02/18 00:16:28;;;;;;;4.87;1.80;;;;;;;-145.69;100.00;52396.84;5133762;27;20204;-81
2023/02/18 00:18:55;;;;;;;2.10;1.60;;;;;;;-145.69;100.00;52428.53;5133904;27;20205;-83
2023/02/18 00:21:22;;;;;;;4.77;1.83;;;;;;;-145.69;100.00;52428.53;5133488;27;20256;-83
2023/02/18 00:23:50;;;;;;;2.10;1.43;;;;;;;-145.69;100.00;52408.75;5133599;27;20232;-83
2023/02/18 00:26:20;;;;;;;1.37;1.27;;;;;;;-145.69;100.00;52434.47;5133693;27;20278;-83
2023/02/18 00:28:48;;;;;;;3.27;0.90;;;;;;;-145.69;100.00;52438.44;5134202;28;20551;-84
2023/02/18 00:31:18;;;;;;;3.07;1.30;;;;;;;-145.69;100.00;52402.78;5133926;28;20692;-84
2023/02/18 00:33:45;;;;;;;1.57;1.27;;;;;;;-145.69;100.00;52373.09;5133645;27;20197;-84
2023/02/18 00:36:14;;;;;;;1.57;1.00;;;;;;;-145.69;100.00;52420.63;5133998;28;20200;-83
2023/02/18 00:38:54;;;;;;;1.00;0.90;;;;;;;-145.69;100.00;52410.72;5133871;27;20204;-84
2023/02/18 00:41:25;;;;;;;2.50;1.37;;;;;;;-145.69;100.00;52398.84;5133756;27;20196;-82
2023/02/18 00:43:52;;;;;;;1.10;1.00;;;;;;;-145.69;100.00;52384.97;5133523;28;20223;-84
2023/02/18 00:46:19;;;;;;;1.60;1.00;;;;;;;-145.69;100.00;52408.75;5133714;27;20197;-85
2023/02/18 00:48:46;;;;;;;2.80;1.10;;;;;;;-145.69;100.00;52398.84;5133439;27;20714;-84
2023/02/18 00:51:13;;;;;;;2.07;1.07;;;;;;;-145.69;100.00;52420.63;5133804;27;20201;-84
2023/02/18 00:53:40;;;;;;;1.30;1.07;;;;;;;-145.69;100.00;52420.63;5133725;27;20196;-84
2023/02/18 00:56:07;;;;;;;1.37;1.17;;;;;;;-145.69;100.00;52408.75;5133391;28;20651;-83
2023/02/18 00:58:39;;;;;;;2.33;1.30;;;;;;;-145.69;100.00;52434.47;5133659;27;20202;-83
2023/02/18 01:01:07;;;;;;;1.93;1.00;;;;;;;-145.69;100.00;52390.91;5133600;27;20204;-82
2023/02/18 01:03:33;;;;;;;2.47;1.13;;;;;;;-145.69;100.00;52422.59;5132324;27;20225;-82
2023/02/18 01:06:03;;;;;;;1.63;0.93;;;;;;;-145.69;100.00;52434.47;5132812;28;20284;-82
2023/02/18 01:08:31;;;;;;;1.70;1.03;;;;;;;-145.69;100.00;52408.75;5133607;28;20193;-81
2023/02/18 01:10:59;;;;;;;1.20;0.90;;;;;;;-145.69;100.00;52448.34;5133382;27;20216;-82
2023/02/18 01:13:27;;;;;;;1.80;1.20;;;;;;;-145.69;100.00;52396.84;5126250;27;20705;-81
2023/02/18 01:15:55;;;;;;;1.23;0.87;;;;;;;-145.69;100.00;52406.75;5114304;28;20233;-83
2023/02/18 01:18:22;;;;;;;1.10;0.90;;;;;;;-145.69;100.00;52412.69;5135581;27;20193;-83
2023/02/18 01:20:49;;;;;;;1.10;0.77;;;;;;;-145.69;100.00;52400.81;5137481;27;20197;-84
2023/02/18 01:23:16;;;;;;;5.30;1.10;;;;;;;-145.69;100.00;52392.91;5136584;27;20196;-83
2023/02/18 01:25:43;;;;;;;0.97;0.80;;;;;;;-145.69;100.00;52424.59;5137045;27;20232;-84
2023/02/18 01:28:11;;;;;;;1.13;1.03;;;;;;;-145.69;100.00;52424.59;5136990;27;20655;-84
2023/02/18 01:30:38;;;;;;;3.43;0.93;;;;;;;-145.69;100.00;52400.81;5137098;27;20196;-84
2023/02/18 01:33:06;;;;;;;1.30;0.97;;;;;;;-145.69;100.00;52406.75;5136805;27;20200;-84
2023/02/18 01:35:34;;;;;;;1.67;1.07;;;;;;;-145.69;100.00;52448.34;5137583;27;20207;-84
2023/02/18 01:38:01;;;;;;;5.07;0.83;;;;;;;-145.69;100.00;52406.75;5136712;27;20208;-84
2023/02/18 01:40:30;;;;;;;2.30;0.70;;;;;;;-145.69;100.00;52426.56;5137341;27;20678;-84
2023/02/18 01:42:56;;;;;;;0.80;0.80;;;;;;;-145.69;100.00;52384.97;5137050;27;20563;-84
2023/02/18 01:46:06;;;;;;;0.83;0.83;;;;;;;-145.69;100.00;52406.75;5136579;27;20228;-84
2023/02/18 01:48:38;;;;;;;1.20;0.80;;;;;;;-145.69;100.00;52442.41;5136648;27;20196;-84
2023/02/18 01:51:09;;;;;;;1.80;0.87;;;;;;;-145.69;100.00;52406.75;5136833;27;20196;-84
2023/02/18 01:53:40;;;;;;;0.90;0.80;;;;;;;-145.69;100.00;52450.31;5135741;27;20201;-84
2023/02/18 01:56:10;;;;;;;0.90;0.73;;;;;;;-145.69;100.00;52428.53;5136484;27;20204;-85
2023/02/18 01:58:37;;;;;;;1.10;0.90;;;;;;;-145.69;100.00;52430.53;5136780;27;20207;-84
2023/02/18 02:01:04;;;;;;;1.30;1.00;;;;;;;-145.69;100.00;52432.50;5136642;27;20211;-84
2023/02/18 02:03:31;;;;;;;0.77;0.77;;;;;;;-145.69;100.00;52444.38;5136793;27;20232;-84
2023/02/18 02:05:59;;;;;;;0.80;0.73;;;;;;;-145.69;100.00;52418.63;5136702;27;20236;-84
2023/02/18 02:08:26;;;;;;;1.00;0.90;;;;;;;-145.69;100.00;52406.75;5136294;27;20203;-84
2023/02/18 02:11:07;;;;;;;1.23;1.07;;;;;;;-145.69;100.00;52424.59;5136771;27;20196;-84
2023/02/18 02:13:51;;;;;;;0.83;0.83;;;;;;;-145.69;100.00;52408.75;5136506;27;20232;-85
2023/02/18 02:16:28;;;;;;;0.80;0.80;;;;;;;-145.69;100.00;52440.44;5136356;27;20204;-84
2023/02/18 02:19:07;;;;;;;1.47;1.00;;;;;;;-145.69;100.00;52452.31;5135958;27;20216;-85
2023/02/18 02:21:57;;;;;;;1.00;0.90;;;;;;;-145.69;100.00;52414.69;5136693;27;20253;-84
2023/02/18 02:24:58;;;;;;;1.53;0.87;;;;;;;-145.69;100.00;52432.50;5125284;27;20221;-85
2023/02/18 02:27:29;;;;;;;1.40;1.10;;;;;;;-145.69;100.00;52438.44;5113139;27;20200;-84
2023/02/18 02:30:19;;;;;;;1.63;0.80;;;;;;;-145.69;100.00;52432.50;5119624;27;20290;-84
2023/02/18 02:33:08;;;;;;;0.93;0.80;;;;;;;-145.69;100.00;52418.63;5135225;27;20208;-84
2023/02/18 02:35:40;;;;;;;1.03;0.90;;;;;;;-145.69;100.00;52408.75;5135831;27;20212;-84
2023/02/18 02:38:13;;;;;;;0.73;0.63;;;;;;;-145.69;100.00;52416.66;5136336;27;20204;-84
2023/02/18 02:40:48;;;;;;;0.70;0.70;;;;;;;-145.69;100.00;52420.63;5135842;27;20196;-84
2023/02/18 02:43:25;;;;;;;0.73;0.70;;;;;;;-145.69;100.00;52410.72;5135409;27;20192;-84
2023/02/18 02:45:59;;;;;;;0.70;0.70;;;;;;;-145.69;100.00;52412.69;5135947;27;20594;-84
2023/02/18 02:48:32;;;;;;;0.70;0.70;;;;;;;-145.69;100.00;52432.50;5135767;27;20240;-84
2023/02/18 02:51:08;;;;;;;0.67;0.67;;;;;;;-145.69;100.00;52412.69;5136228;27;20197;-84
2023/02/18 02:53:36;;;;;;;0.97;0.60;;;;;;;-145.69;100.00;52440.44;5115051;28;20516;-83
2023/02/18 02:56:03;;;;;;;1.57;0.60;;;;;;;-145.69;100.00;52442.41;5114972;28;20272;-85
2023/02/18 02:58:30;;;;;;;0.70;0.60;;;;;;;-145.69;100.00;52408.75;5129812;27;20671;-84
2023/02/18 03:01:15;;;;;;;0.90;0.70;;;;;;;-145.69;100.00;52402.78;5135959;27;20667;-81
2023/02/18 03:04:11;;;;;;;0.60;0.60;;;;;;;-145.69;100.00;52434.47;5113975;28;20229;-84
2023/02/18 03:06:57;;;;;;;0.70;0.60;;;;;;;-145.69;100.00;52424.59;5114540;28;20206;-84
2023/02/18 03:09:32;;;;;;;0.50;0.50;;;;;;;-145.69;100.00;52404.78;5115457;28;20206;-85
2023/02/18 03:12:06;;;;;;;0.77;0.70;;;;;;;-145.69;100.00;52396.84;5129905;27;20196;-85
2023/02/18 03:14:43;;;;;;;1.50;0.50;;;;;;;-145.69;100.00;52400.81;5129237;27;20201;-85
2023/02/18 03:17:22;;;;;;;0.70;0.70;;;;;;;-145.69;100.00;52430.53;5115168;28;20209;-84
2023/02/18 03:19:54;;;;;;;0.70;0.50;;;;;;;-145.69;100.00;52392.91;5123591;27;20189;-84
2023/02/18 03:22:29;;;;;;;0.60;0.60;;;;;;;-145.69;100.00;52410.72;5135373;27;20196;-84
2023/02/18 03:24:56;;;;;;;0.80;0.80;;;;;;;-145.69;100.00;52448.34;5134983;27;20220;-84
2023/02/18 03:27:27;;;;;;;0.77;0.60;;;;;;;-145.69;100.00;52414.69;5134932;27;20197;-83
2023/02/18 03:29:57;;;;;;;0.90;0.70;;;;;;;-145.69;100.00;52428.53;5134990;27;20192;-84
2023/02/18 03:32:26;;;;;;;0.60;0.60;;;;;;;-145.69;100.00;52390.91;5135129;27;20208;-83
2023/02/18 03:34:58;;;;;;;1.00;0.60;;;;;;;-145.69;100.00;52408.75;5134679;27;20204;-83
2023/02/18 03:37:26;;;;;;;0.67;0.60;;;;;;;-145.69;100.00;52438.44;5134159;27;20197;-84
2023/02/18 03:39:57;;;;;;;0.90;0.70;;;;;;;-145.69;100.00;52448.34;5134767;27;20255;-83
2023/02/18 03:42:26;;;;;;;0.53;0.53;;;;;;;-145.69;100.00;52369.13;5134853;27;20196;-84
2023/02/18 03:44:55;;;;;;;1.27;0.60;;;;;;;-145.69;100.00;52416.66;5134925;27;20602;-84
2023/02/18 03:47:23;;;;;;;1.03;0.60;;;;;;;-145.69;100.00;52444.38;5134939;27;20207;-84
2023/02/18 03:49:49;;;;;;;1.10;0.60;;;;;;;-145.69;100.00;52426.56;5134489;27;20259;-84
2023/02/18 03:52:16;;;;;;;0.90;0.70;;;;;;;-145.69;100.00;52418.63;5134831;27;20200;-85
2023/02/18 03:54:44;;;;;;;0.80;0.70;;;;;;;-145.69;100.00;52458.25;5134511;27;20204;-85
2023/02/18 03:57:10;;;;;;;1.80;0.80;;;;;;;-145.69;100.00;52424.59;5134893;27;20200;-85
2023/02/18 03:59:37;;;;;;;1.77;0.70;;;;;;;-145.69;100.00;52424.59;5134778;27;20196;-85
2023/02/18 04:02:03;;;;;;;0.57;0.53;;;;;;;-145.69;100.00;52406.75;5133713;27;20203;-85
2023/02/18 04:04:30;;;;;;;0.60;0.60;;;;;;;-145.69;100.00;52428.53;5134418;27;20267;-85
2023/02/18 04:06:56;;;;;;;1.07;0.70;;;;;;;-145.69;100.00;52438.44;5134810;27;20197;-84
2023/02/18 04:09:24;;;;;;;0.87;0.77;;;;;;;-145.69;100.00;52384.97;5134565;27;20291;-83
2023/02/18 04:11:52;;;;;;;0.70;0.70;;;;;;;-145.69;100.00;52452.31;5134437;27;20200;-84
2023/02/18 04:14:19;;;;;;;1.30;0.70;;;;;;;-145.69;100.00;52474.09;5134469;27;20196;-84
2023/02/18 04:16:45;;;;;;;1.77;1.00;;;;;;;-145.69;100.00;52432.50;5134813;27;20682;-84
2023/02/18 04:19:12;;;;;;;1.80;0.90;;;;;;;-145.69;100.00;52446.38;5134566;27;20253;-84
2023/02/18 04:21:38;;;;;;;1.27;0.70;;;;;;;-145.69;100.00;52428.53;5135588;27;20193;-84
2023/02/18 04:24:05;;;;;;;1.33;0.93;;;;;;;-145.69;100.00;52412.69;5134421;27;20196;-84
2023/02/18 04:26:32;;;;;;;0.70;0.67;;;;;;;-145.69;100.00;52418.63;5134153;27;20316;-84
2023/02/18 04:28:59;;;;;;;1.27;0.80;;;;;;;-145.69;100.00;52448.34;5133971;27;20276;-84
2023/02/18 04:31:26;;;;;;;2.07;0.73;;;;;;;-145.69;100.00;52432.50;5133711;28;20189;-84
2023/02/18 04:33:53;;;;;;;0.83;0.80;;;;;;;-145.69;100.00;52448.34;5134272;28;20204;-84
2023/02/18 04:36:19;;;;;;;1.37;1.00;;;;;;;-145.69;100.00;52418.63;5133931;27;20203;-84
2023/02/18 04:38:46;;;;;;;0.67;0.67;;;;;;;-145.69;100.00;52436.47;5134424;28;20207;-84
2023/02/18 04:41:12;;;;;;;0.67;0.60;;;;;;;-145.69;100.00;52414.69;5134132;28;20552;-84
2023/02/18 04:43:41;;;;;;;1.20;0.80;;;;;;;-145.69;100.00;52432.50;5134397;28;20207;-84
2023/02/18 04:46:09;;;;;;;1.17;0.80;;;;;;;-145.69;100.00;52448.34;5134200;27;20228;-84
2023/02/18 04:48:36;;;;;;;1.83;0.90;;;;;;;-145.69;100.00;52418.63;5134268;28;20189;-84
2023/02/18 04:51:03;;;;;;;2.40;1.13;;;;;;;-145.69;100.00;52422.59;5137402;27;20204;-84
2023/02/18 04:53:29;;;;;;;1.17;0.80;;;;;;;-145.69;100.00;52464.19;5138650;27;20359;-83
2023/02/18 04:55:56;;;;;;;0.80;0.70;;;;;;;-145.69;100.00;52422.59;5138081;27;20203;-84
2023/02/18 04:58:22;;;;;;;0.80;0.77;;;;;;;-145.69;100.00;52476.06;5138185;27;20193;-85
2023/02/18 05:00:49;;;;;;;1.00;0.90;;;;;;;-145.69;100.00;52438.44;5137885;27;20189;-84
2023/02/18 05:03:17;;;;;;;0.97;0.93;;;;;;;-145.69;100.00;52424.59;5138093;27;20281;-85
2023/02/18 05:05:44;;;;;;;0.70;0.70;;;;;;;-145.69;100.00;52406.75;5137148;27;20239;-84
2023/02/18 05:08:11;;;;;;;0.73;0.73;;;;;;;-145.69;100.00;52410.72;5125122;27;20728;-85
2023/02/18 05:10:38;;;;;;;0.67;0.60;;;;;;;-145.69;100.00;52406.75;5137859;27;20207;-84
2023/02/18 05:13:05;;;;;;;1.03;0.93;;;;;;;-145.69;100.00;52412.69;5137633;27;20280;-84
2023/02/18 05:15:31;;;;;;;0.77;0.77;;;;;;;-145.69;100.00;52440.44;5137782;27;20216;-84
2023/02/18 05:17:58;;;;;;;1.60;0.70;;;;;;;-145.69;100.00;52396.84;5137340;27;20673;-84
2023/02/18 05:20:26;;;;;;;1.53;0.90;;;;;;;-145.69;100.00;52438.44;5137327;27;20208;-83
2023/02/18 05:22:52;;;;;;;1.13;0.90;;;;;;;-145.69;100.00;52408.75;5137148;27;20224;-84
2023/02/18 05:25:19;;;;;;;0.80;0.80;;;;;;;-145.69;100.00;52428.53;5136784;27;20683;-84
2023/02/18 05:27:45;;;;;;;2.00;1.30;;;;;;;-145.69;100.00;52424.59;5137568;27;20197;-84
2023/02/18 05:30:12;;;;;;;0.87;0.80;;;;;;;-145.69;100.00;52426.56;5137382;27;20219;-84
2023/02/18 05:32:39;;;;;;;2.00;0.90;;;;;;;-145.69;100.00;52416.66;5137704;27;20193;-84
2023/02/18 05:35:06;;;;;;;0.80;0.80;;;;;;;-145.69;100.00;52428.53;5136847;27;20192;-84
2023/02/18 05:37:34;;;;;;;0.77;0.70;;;;;;;-145.69;100.00;52426.56;5137128;27;20639;-84
2023/02/18 05:40:01;;;;;;;0.70;0.70;;;;;;;-145.69;100.00;52440.44;5135626;27;20205;-84
2023/02/18 05:42:27;;;;;;;0.70;0.60;;;;;;;-145.69;100.00;52386.97;5136934;27;20708;-82
2023/02/18 05:44:54;;;;;;;1.70;0.87;;;;;;;-145.69;100.00;52404.78;5136769;27;20197;-83
2023/02/18 05:47:20;;;;;;;0.90;0.67;;;;;;;-145.69;100.00;52428.53;5136898;27;20197;-83
2023/02/18 05:49:47;;;;;;;0.80;0.70;;;;;;;-145.69;100.00;52404.78;5136634;27;20555;-83
2023/02/18 05:52:13;;;;;;;1.50;0.90;;;;;;;-145.69;100.00;52377.06;5137002;27;20196;-83
2023/02/18 05:54:41;;;;;;;1.60;0.90;;;;;;;-145.69;100.00;52422.59;5137064;27;20201;-84
2023/02/18 05:57:08;;;;;;;1.10;0.83;;;;;;;-145.69;100.00;52428.53;5137091;27;20201;-84
2023/02/18 05:59:35;;;;;;;1.00;0.90;;;;;;;-145.69;100.00;52438.44;5136527;27;20196;-84
2023/02/18 06:02:01;;;;;;;1.23;0.83;;;;;;;-145.69;100.00;52424.59;5135817;27;20193;-84
2023/02/18 06:04:28;;;;;;;0.70;0.70;;;;;;;-145.69;100.00;52420.63;5136905;27;20231;-84
2023/02/18 06:06:54;;;;;;;0.83;0.80;;;;;;;-145.69;100.00;52392.91;5136776;27;20223;-84
2023/02/18 06:09:21;;;;;;;0.80;0.80;;;;;;;-145.69;100.00;52369.13;5136922;27;20204;-84
2023/02/18 06:11:49;;;;;;;1.57;0.83;;;;;;;-145.69;100.00;52392.91;5136701;27;20195;-83
2023/02/18 06:14:16;;;;;;;1.30;1.00;;;;;;;-145.69;100.00;52404.78;5136336;27;20249;-84
2023/02/18 06:16:43;;;;;;;1.10;0.87;;;;;;;-145.69;100.00;52400.81;5136725;27;20197;-83
2023/02/18 06:19:09;;;;;;;0.97;0.87;;;;;;;-145.69;100.00;52420.63;5136496;27;20223;-84
2023/02/18 06:21:36;;;;;;;1.10;0.93;;;;;;;-145.69;100.00;52398.84;5136832;27;20219;-83
2023/02/18 06:24:03;;;;;;;1.50;0.90;;;;;;;-145.69;100.00;52392.91;5136250;27;20201;-84
2023/02/18 06:26:29;;;;;;;1.17;0.97;;;;;;;-145.69;100.00;52394.88;5136427;27;20231;-84
2023/02/18 06:28:57;;;;;;;1.10;1.00;;;;;;;-145.69;100.00;52412.69;5136318;27;20208;-84
2023/02/18 06:31:24;;;;;;;1.20;0.93;;;;;;;-145.69;100.00;52402.78;5136433;27;20204;-84
2023/02/18 06:33:50;;;;;;;0.80;0.80;;;;;;;-145.69;100.00;52426.56;5136476;27;20200;-83
2023/02/18 06:36:17;;;;;;;1.03;0.83;;;;;;;-145.69;100.00;52422.59;5134207;27;20185;-83
2023/02/18 06:38:45;;;;;;;0.80;0.75;;;;;;;-145.69;100.00;52434.47;5136354;27;20792;-84
2023/02/18 06:41:13;;;;;;;1.00;0.90;;;;;;;-145.69;100.00;52388.94;5137342;27;20585;-82
2023/02/18 06:43:41;;;;;;;1.43;1.10;;;;;;;-145.69;100.00;52404.78;5136168;27;20203;-82
2023/02/18 06:46:09;;;;;;;0.83;0.80;;;;;;;-145.69;100.00;52388.94;5135656;27;20216;-83
2023/02/18 06:48:37;;;;;;;4.07;1.00;;;;;;;-145.69;100.00;52392.91;5135636;27;20200;-83
2023/02/18 06:51:04;;;;;;;1.10;0.80;;;;;;;-145.69;100.00;52388.94;5136328;27;20296;-82
2023/02/18 06:53:30;;;;;;;1.67;1.00;;;;;;;-145.69;100.00;52412.69;5137294;27;20197;-83
2023/02/18 06:55:57;;;;;;;1.93;0.97;;;;;;;-145.69;100.00;52440.44;5137163;27;20245;-83
2023/02/18 06:58:23;;;;;;;0.80;0.80;;;;;;;-145.69;100.00;52404.78;5137042;27;20226;-83
2023/02/18 07:00:50;;;;;;;0.80;0.80;;;;;;;-145.69;100.00;52396.84;5136689;27;20197;-83
2023/02/18 07:03:18;;;;;;;1.00;0.90;;;;;;;-145.69;100.00;52396.84;5135909;27;20225;-83
2023/02/18 07:05:45;;;;;;;1.20;1.00;;;;;;;-145.69;100.00;52398.84;5137117;27;20228;-83
2023/02/18 07:08:11;;;;;;;1.63;1.03;;;;;;;-145.69;100.00;52379.03;5135978;27;20670;-82
2023/02/18 07:10:38;;;;;;;1.67;1.20;;;;;;;-145.69;100.00;52367.16;5135844;27;20626;-83
2023/02/18 07:13:05;;;;;;;2.60;1.20;;;;;;;-145.69;100.00;52434.47;5134636;27;20193;-82
2023/02/18 07:15:32;;;;;;;2.63;1.10;;;;;;;-145.69;100.00;52396.84;5131842;27;20200;-83
2023/02/18 07:17:58;;;;;;;0.87;0.80;;;;;;;-145.69;100.00;52390.91;5135674;27;20670;-83
2023/02/18 07:20:26;;;;;;;1.73;1.10;;;;;;;-145.69;100.00;52408.75;5135115;27;20227;-83
2023/02/18 07:22:54;;;;;;;1.67;0.97;;;;;;;-145.69;100.00;52400.81;5135639;27;20207;-82
2023/02/18 07:25:20;;;;;;;1.40;1.00;;;;;;;-145.69;100.00;52408.75;5135256;27;20188;-83
2023/02/18 07:27:47;;;;;;;2.53;1.40;;;;;;;-145.69;100.00;52420.63;5135617;27;20227;-83
2023/02/18 07:30:14;;;;;;;5.00;2.23;;;;;;;-145.69;100.00;52398.84;5135681;27;20204;-83
2023/02/18 07:32:40;;;;;;;2.90;1.50;;;;;;;-145.69;100.00;52422.59;5135733;27;20201;-84
2023/02/18 07:35:08;;;;;;;5.47;2.47;;;;;;;-145.69;100.00;52396.84;5136393;27;20193;-84
2023/02/18 07:37:36;;;;;;;1.20;0.80;;;;;;;-145.69;100.00;52422.59;5136511;27;20269;-84
2023/02/18 07:40:03;;;;;;;2.27;1.20;;;;;;;-145.69;100.00;52448.34;5135943;27;20204;-84
2023/02/18 07:42:29;;;;;;;1.70;1.30;;;;;;;-145.69;100.00;52369.13;5136007;27;20232;-84
2023/02/18 07:44:56;;;;;;;2.43;1.00;;;;;;;-145.69;100.00;52412.69;5135290;27;20211;-84
2023/02/18 07:47:23;;;;;;;1.73;1.20;;;;;;;-145.69;100.00;52404.78;5135458;27;20415;-84
2023/02/18 07:49:49;;;;;;;1.73;1.00;;;;;;;-145.69;100.00;52420.63;5135642;27;20203;-84
2023/02/18 07:52:16;;;;;;;2.07;0.97;;;;;;;-145.69;100.00;52404.78;5134741;27;20224;-83
2023/02/18 07:54:44;;;;;;;1.50;1.17;;;;;;;-145.69;100.00;52402.78;5134606;27;20257;-82
2023/02/18 07:57:10;;;;;;;1.07;0.73;;;;;;;-145.69;100.00;52412.69;5134431;27;20193;-83
2023/02/18 07:59:37;;;;;;;1.87;0.87;;;;;;;-145.69;100.00;52434.47;5134269;27;20193;-82
2023/02/18 08:02:06;;;;;;;0.67;0.67;;;;;;;-145.69;100.00;52400.81;5134082;27;20559;-83
2023/02/18 08:04:33;;;;;;;0.87;0.80;;;;;;;-145.69;100.00;52462.22;5133674;27;20347;-83
2023/02/18 08:06:59;;;;;;;1.07;0.97;;;;;;;-145.69;100.00;52369.13;5133906;27;20231;-83
2023/02/18 08:09:26;;;;;;;1.13;1.00;;;;;;;-145.69;100.00;52400.81;5134108;27;20223;-82
2023/02/18 08:11:54;;;;;;;0.97;0.83;;;;;;;-145.69;100.00;52361.22;5134015;27;20616;-83
2023/02/18 08:14:20;;;;;;;1.97;1.00;;;;;;;-145.69;100.00;52412.69;5133934;27;20201;-83
2023/02/18 08:16:47;;;;;;;2.03;0.80;;;;;;;-145.69;100.00;52408.75;5134008;27;20193;-81
2023/02/18 08:19:13;;;;;;;1.20;0.80;;;;;;;-145.69;100.00;52418.63;5133899;27;20437;-82
2023/02/18 08:21:39;;;;;;;0.80;0.80;;;;;;;-145.69;100.00;52375.06;5134093;27;20201;-82
2023/02/18 08:24:07;;;;;;;0.70;0.70;;;;;;;-145.69;100.00;52369.13;5133159;27;20449;-82
2023/02/18 08:26:34;;;;;;;2.00;0.90;;;;;;;-145.69;100.00;52388.94;5133695;27;20219;-82
2023/02/18 08:29:02;;;;;;;1.73;1.20;;;;;;;-145.69;100.00;52396.84;5133664;27;20197;-82
2023/02/18 08:31:30;;;;;;;1.20;0.90;;;;;;;-145.69;100.00;52383.00;5133443;27;20665;-82
2023/02/18 08:33:59;;;;;;;1.97;0.90;;;;;;;-145.69;100.00;52365.16;5133463;27;20188;-82
2023/02/18 08:36:26;;;;;;;1.53;0.70;;;;;;;-145.69;100.00;52454.28;5133998;27;20204;-83
2023/02/18 08:38:53;;;;;;;1.87;1.00;;;;;;;-145.69;100.00;52392.91;5133662;28;20278;-82
2023/02/18 08:41:20;;;;;;;1.23;0.90;;;;;;;-145.69;100.00;52396.84;5133525;28;20605;-82
2023/02/18 08:43:47;;;;;;;1.73;1.27;;;;;;;-145.69;100.00;52367.16;5133627;27;20678;-82
2023/02/18 08:46:17;;;;;;;1.27;1.00;;;;;;;-145.69;100.00;52430.53;5132334;27;20265;-82
2023/02/18 08:48:43;;;;;;;0.90;0.83;;;;;;;-145.69;100.00;52388.94;5133927;28;20197;-81
2023/02/18 08:51:14;;;;;;;1.07;0.80;;;;;;;-145.69;100.00;52392.91;5133192;28;20188;-82
2023/02/18 08:53:41;;;;;;;2.33;0.80;;;;;;;-145.69;100.00;52400.81;5133071;27;20215;-82
2023/02/18 08:56:09;;;;;;;1.20;0.87;;;;;;;-145.69;100.00;52406.75;5133891;27;20199;-84
2023/02/18 08:58:38;;;;;;;2.63;1.10;;;;;;;-145.69;100.00;52398.84;5134118;27;20269;-82
2023/02/18 09:01:07;;;;;;;1.13;0.90;;;;;;;-145.69;100.00;52379.03;5133230;27;20577;-84
2023/02/18 09:03:36;;;;;;;1.03;0.80;;;;;;;-145.69;100.00;52418.63;5133151;27;20311;-84
2023/02/18 09:06:02;;;;;;;1.27;0.80;;;;;;;-145.69;100.00;52396.84;5133627;27;20203;-83
2023/02/18 09:08:29;;;;;;;0.70;0.70;;;;;;;-145.69;100.00;52386.97;5133362;28;20196;-85
2023/02/18 09:10:57;;;;;;;1.63;0.90;;;;;;;-145.69;100.00;52381.00;5132449;27;20201;-84
2023/02/18 09:13:24;;;;;;;1.83;0.70;;;;;;;-145.69;100.00;52377.06;5133572;28;20317;-84
2023/02/18 09:15:57;;;;;;;0.70;0.70;;;;;;;-145.69;100.00;52369.13;5133994;27;20211;-84
2023/02/18 09:18:24;;;;;;;1.10;0.80;;;;;;;-145.69;100.00;52377.06;5133639;27;20200;-83
2023/02/18 09:20:56;;;;;;;0.88;0.75;;;;;;;-145.69;100.00;52384.97;5133907;27;20197;-84
2023/02/18 09:23:22;;;;;;;1.60;0.75;;;;;;;-145.69;100.00;52392.91;5133828;28;20659;-83
2023/02/18 09:25:49;;;;;;;1.05;0.73;;;;;;;-145.69;100.00;52383.00;5133028;28;20189;-84
2023/02/18 09:28:15;;;;;;;0.70;0.70;;;;;;;-145.69;100.00;52410.72;5132264;27;20760;-84
2023/02/18 09:30:42;;;;;;;0.63;0.63;;;;;;;-145.69;100.00;52388.94;5133743;28;20200;-84
2023/02/18 09:33:08;;;;;;;1.00;0.65;;;;;;;-145.69;100.00;52408.75;5133649;28;20199;-84
2023/02/18 09:35:39;;;;;;;1.00;0.90;;;;;;;-145.69;100.00;52386.97;5134448;27;20563;-84
2023/02/18 09:38:07;;;;;;;1.00;0.80;;;;;;;-145.69;100.00;52357.25;5137591;27;20197;-84
2023/02/18 09:40:37;;;;;;;1.17;0.90;;;;;;;-145.69;100.00;52384.97;5137516;27;20196;-84
2023/02/18 09:43:05;;;;;;;1.70;0.80;;;;;;;-145.69;100.00;52406.75;5137367;27;20200;-84
2023/02/18 09:45:32;;;;;;;1.48;0.80;;;;;;;-145.69;100.00;52361.22;5137264;27;20200;-84
2023/02/18 09:48:00;;;;;;;0.83;0.80;;;;;;;-145.69;100.00;52402.78;5137112;27;20721;-84
2023/02/18 09:50:30;;;;;;;1.43;0.80;;;;;;;-145.69;100.00;52373.09;5137214;27;20197;-83
2023/02/18 09:52:59;;;;;;;1.40;0.63;;;;;;;-145.69;100.00;52381.00;5136899;27;20199;-85
2023/02/18 09:55:29;;;;;;;1.65;0.70;;;;;;;-145.69;100.00;52394.88;5136544;27;20207;-84
2023/02/18 09:57:58;;;;;;;1.60;0.80;;;;;;;-145.69;100.00;52359.22;5137157;27;20197;-83
2023/02/18 10:00:30;;;;;;;1.08;0.73;;;;;;;-145.69;100.00;52408.75;5137956;27;20199;-81
2023/02/18 10:03:01;;;;;;;0.97;0.80;;;;;;;-145.69;100.00;52404.78;5156242;27;20209;-81
2023/02/18 10:05:30;;;;;;;0.97;0.87;;;;;;;-145.69;100.00;52410.72;5137265;27;20559;-81
2023/02/18 10:08:02;;;;;;;0.90;0.68;;;;;;;-145.69;100.00;52365.16;5136259;27;20221;-81
2023/02/18 10:10:38;;;;;;;1.40;0.87;;;;;;;-145.69;100.00;52422.59;5136042;27;20647;-81
2023/02/18 10:13:06;;;;;;;1.47;0.80;;;;;;;-145.69;100.00;52383.00;5136305;27;20215;-81
2023/02/18 10:15:33;;;;;;;1.60;0.95;;;;;;;-145.69;100.00;52349.31;5136274;27;20201;-78
2023/02/18 10:18:00;;;;;;;1.53;0.70;;;;;;;-145.69;100.00;52365.16;5136080;27;20658;-80
2023/02/18 10:20:30;;;;;;;0.90;0.70;;;;;;;-145.69;100.00;52388.94;5136315;27;20223;-80
2023/02/18 10:23:00;;;;;;;0.77;0.77;;;;;;;-145.69;100.00;52383.00;5135697;27;20224;-80
2023/02/18 10:25:28;;;;;;;1.25;0.77;;;;;;;-145.69;100.00;52355.28;5119996;27;20197;-80
2023/02/18 10:27:59;;;;;;;1.35;0.80;;;;;;;-145.69;100.00;52369.13;5135533;27;20235;-80
2023/02/18 10:30:30;;;;;;;0.65;0.65;;;;;;;-145.69;100.00;52394.88;5115024;28;20197;-80
2023/02/18 10:33:08;;;;;;;1.20;0.77;;;;;;;-145.69;100.00;52377.06;5115184;28;20202;-80
2023/02/18 10:35:42;;;;;;;0.95;0.85;;;;;;;-145.69;100.00;52383.00;5134642;27;20192;-80
2023/02/18 10:38:16;;;;;;;1.73;0.80;;;;;;;-145.69;100.00;52377.06;5135611;27;20197;-81
2023/02/18 10:40:53;;;;;;;1.13;0.80;;;;;;;-145.69;100.00;52398.84;5135650;27;20254;-79
2023/02/18 10:43:31;;;;;;;2.40;0.80;;;;;;;-145.69;100.00;52388.94;5136009;27;20196;-84
2023/02/18 10:46:06;;;;;;;0.90;0.70;;;;;;;-145.69;100.00;52383.00;5136901;27;20211;-81
2023/02/18 10:48:48;;;;;;;0.60;0.60;;;;;;;-145.69;100.00;52363.19;5117896;27;20216;-81
2023/02/18 10:51:19;;;;;;;1.88;0.70;;;;;;;-145.69;100.00;52388.94;5135501;27;20200;-81
2023/02/18 10:53:48;;;;;;;1.83;0.90;;;;;;;-145.69;100.00;52365.16;5135733;27;20193;-79
2023/02/18 10:56:34;;;;;;;2.40;0.90;;;;;;;-145.69;100.00;52392.91;5134795;27;20205;-80
2023/02/18 10:59:10;;;;;;;1.10;0.65;;;;;;;-145.69;100.00;52367.16;5135302;27;20195;-80
2023/02/18 11:01:44;;;;;;;1.40;1.00;;;;;;;-145.69;100.00;52402.78;5114388;28;20204;-80
2023/02/18 11:04:16;;;;;;;3.40;0.98;;;;;;;-145.69;100.00;52369.13;5118450;27;20221;-78
2023/02/18 11:06:48;;;;;;;1.70;0.90;;;;;;;-145.69;100.00;52416.66;5135130;27;20208;-78
2023/02/18 11:09:31;;;;;;;1.55;0.85;;;;;;;-145.69;100.00;52384.97;5134639;27;20193;-80
2023/02/18 11:12:03;;;;;;;0.80;0.77;;;;;;;-145.69;100.00;52367.16;5114461;28;20208;-81
2023/02/18 11:14:43;;;;;;;0.80;0.80;;;;;;;-145.69;100.00;52355.28;5116011;27;20212;-81
2023/02/18 11:17:17;;;;;;;1.25;0.90;;;;;;;-145.69;100.00;52381.00;5124443;27;20196;-81
2023/02/18 11:19:43;;;;;;;0.70;0.68;;;;;;;-145.69;100.00;52390.91;5134203;27;20193;-81